createdAt,value
2023-02-25T00:01:38.802Z,5.70
2023-02-25T00:04:05.762Z,5.80
2023-02-25T00:06:32.576Z,5.70
2023-02-25T00:08:59.337Z,5.70
2023-02-25T00:11:26.446Z,5.70
2023-02-25T00:13:53.576Z,5.60
2023-02-25T00:16:23.436Z,5.70
2023-02-25T00:18:58.406Z,5.70
2023-02-25T00:21:25.935Z,5.60
2023-02-25T00:23:53.605Z,5.60
2023-02-25T00:26:22.162Z,5.60
2023-02-25T00:28:50.489Z,5.60
2023-02-25T00:31:21.617Z,5.60
2023-02-25T00:33:49.862Z,5.60
2023-02-25T00:36:28.623Z,5.50
2023-02-25T00:38:57.873Z,5.60
2023-02-25T00:41:28.976Z,5.50
2023-02-25T00:44:00.855Z,5.50
2023-02-25T00:46:30.096Z,5.50
2023-02-25T00:48:58.624Z,5.50
2023-02-25T00:51:29.358Z,5.40
2023-02-25T00:53:57.449Z,5.40
2023-02-25T00:56:26.138Z,5.30
2023-02-25T00:58:53.804Z,5.30
2023-02-25T01:01:28.771Z,5.30
2023-02-25T01:03:57.870Z,5.30
2023-02-25T01:06:27.534Z,5.30
2023-02-25T01:08:54.961Z,5.40
2023-02-25T01:11:28.995Z,5.40
2023-02-25T01:14:03.897Z,5.40
2023-02-25T01:16:33.154Z,5.40
2023-02-25T01:19:05.499Z,5.30
2023-02-25T01:21:37.315Z,5.30
2023-02-25T01:24:16.315Z,5.30
2023-02-25T01:26:46.092Z,5.30
2023-02-25T01:29:17.790Z,5.30
2023-02-25T01:31:45.716Z,5.30
2023-02-25T01:34:16.747Z,5.40
2023-02-25T01:36:44.294Z,5.50
2023-02-25T01:39:14.151Z,5.50
2023-02-25T01:41:41.713Z,5.50
2023-02-25T01:44:13.117Z,5.50
2023-02-25T01:46:43.185Z,5.60
2023-02-25T01:49:19.190Z,5.60
2023-02-25T01:51:49.846Z,5.50
2023-02-25T01:54:17.871Z,5.40
2023-02-25T01:56:51.479Z,5.20
2023-02-25T01:59:24.412Z,5.10
2023-02-25T02:01:51.904Z,5.20
2023-02-25T02:04:21.801Z,5.20
2023-02-25T02:06:50.932Z,5.20
2023-02-25T02:09:23.008Z,5.20
2023-02-25T02:11:50.888Z,5.20
2023-02-25T02:14:31.694Z,5.20
2023-02-25T02:17:10.417Z,5.20
2023-02-25T02:19:52.082Z,5.10
2023-02-25T02:22:38.597Z,5.20
2023-02-25T02:25:36.547Z,5.30
2023-02-25T02:28:57.340Z,5.30
2023-02-25T02:31:39.849Z,5.30
2023-02-25T02:34:25.970Z,5.30
2023-02-25T02:37:18.783Z,5.20
2023-02-25T02:39:58.120Z,5.20
2023-02-25T02:42:41.135Z,5.10
2023-02-25T02:45:23.713Z,5.10
2023-02-25T02:48:07.213Z,5.10
2023-02-25T02:50:41.918Z,5.10
2023-02-25T02:53:41.942Z,5.10
2023-02-25T02:56:14.338Z,5.20
2023-02-25T02:59:07.453Z,5.20
2023-02-25T03:01:46.230Z,5.20
2023-02-25T03:04:21.799Z,5.30
2023-02-25T03:06:55.463Z,5.30
2023-02-25T03:09:35.513Z,5.30
2023-02-25T03:12:02.543Z,5.30
2023-02-25T03:14:32.521Z,5.30
2023-02-25T03:17:15.467Z,5.40
2023-02-25T03:19:53.717Z,5.40
2023-02-25T03:22:28.417Z,5.40
2023-02-25T03:25:19.673Z,5.50
2023-02-25T03:27:54.704Z,5.50
2023-02-25T03:31:15.828Z,5.50
2023-02-25T03:33:51.598Z,5.40
2023-02-25T03:37:04.727Z,5.40
2023-02-25T03:39:40.268Z,5.30
2023-02-25T03:42:14.227Z,5.20
2023-02-25T03:44:51.277Z,5.10
2023-02-25T03:47:22.414Z,5.00
2023-02-25T03:50:15.738Z,5.00
2023-02-25T03:52:45.654Z,5.00
2023-02-25T03:55:29.269Z,5.00
2023-02-25T03:57:56.490Z,4.90
2023-02-25T04:00:28.302Z,4.90
2023-02-25T04:02:55.710Z,4.80
2023-02-25T04:05:27.661Z,4.90
2023-02-25T04:07:56.407Z,4.90
2023-02-25T04:10:25.421Z,4.90
2023-02-25T04:12:52.377Z,4.90
2023-02-25T04:15:20.868Z,4.80
2023-02-25T04:17:47.802Z,4.90
2023-02-25T04:20:17.337Z,4.90
2023-02-25T04:22:44.713Z,4.90
2023-02-25T04:25:12.063Z,5.00
2023-02-25T04:27:38.906Z,4.90
2023-02-25T04:30:06.673Z,5.00
2023-02-25T04:32:33.537Z,5.00
2023-02-25T04:35:03.206Z,5.00
2023-02-25T04:37:30.712Z,5.00
2023-02-25T04:39:57.854Z,5.00
2023-02-25T04:42:24.743Z,5.00
2023-02-25T04:44:51.497Z,4.90
2023-02-25T04:47:19.065Z,4.80
2023-02-25T04:49:46.112Z,4.90
2023-02-25T04:52:14.728Z,4.80
2023-02-25T04:54:41.625Z,4.80
2023-02-25T04:57:08.975Z,4.80
2023-02-25T04:59:35.886Z,4.90
2023-02-25T05:02:03.323Z,4.80
2023-02-25T05:04:30.232Z,4.80
2023-02-25T05:06:57.170Z,4.80
2023-02-25T05:09:24.013Z,4.70
2023-02-25T05:11:50.827Z,4.80
2023-02-25T05:14:18.260Z,4.80
2023-02-25T05:16:45.562Z,4.80
2023-02-25T05:19:24.373Z,4.80
2023-02-25T05:21:53.197Z,4.80
2023-02-25T05:24:23.330Z,4.80
2023-02-25T05:26:51.376Z,4.80
2023-02-25T05:29:18.488Z,4.80
2023-02-25T05:31:45.475Z,4.80
2023-02-25T05:34:12.434Z,4.90
2023-02-25T05:36:40.850Z,4.90
2023-02-25T05:39:07.750Z,4.90
2023-02-25T05:41:34.562Z,4.90
2023-02-25T05:44:01.442Z,4.90
2023-02-25T05:46:28.434Z,4.80
2023-02-25T05:48:55.268Z,4.80
2023-02-25T05:51:23.514Z,4.80
2023-02-25T05:53:53.816Z,4.80
2023-02-25T05:56:25.382Z,4.80
2023-02-25T05:58:53.162Z,4.80
2023-02-25T06:01:24.953Z,4.80
2023-02-25T06:03:52.336Z,4.80
2023-02-25T06:06:23.416Z,4.70
2023-02-25T06:08:51.652Z,4.70
2023-02-25T06:11:24.572Z,4.60
2023-02-25T06:13:53.797Z,4.70
2023-02-25T06:16:21.482Z,4.60
2023-02-25T06:18:51.351Z,4.60
2023-02-25T06:21:18.824Z,4.60
2023-02-25T06:23:45.755Z,4.60
2023-02-25T06:26:14.758Z,4.60
2023-02-25T06:28:42.295Z,4.60
2023-02-25T06:31:12.414Z,4.60
2023-02-25T06:33:39.360Z,4.60
2023-02-25T06:36:08.177Z,4.60
2023-02-25T06:38:36.054Z,4.60
2023-02-25T06:41:29.342Z,4.60
2023-02-25T06:43:56.266Z,4.70
2023-02-25T06:46:26.674Z,4.60
2023-02-25T06:48:54.437Z,4.60
2023-02-25T06:51:22.194Z,4.70
2023-02-25T06:53:50.834Z,4.70
2023-02-25T06:56:20.055Z,4.70
2023-02-25T06:58:47.856Z,4.70
2023-02-25T07:01:16.656Z,4.70
2023-02-25T07:03:43.690Z,4.80
2023-02-25T07:06:11.379Z,4.80
2023-02-25T07:08:38.257Z,4.80
2023-02-25T07:11:21.624Z,4.90
2023-02-25T07:13:50.239Z,4.90
2023-02-25T07:16:18.139Z,5.00
2023-02-25T07:18:45.349Z,4.90
2023-02-25T07:21:13.681Z,4.90
2023-02-25T07:23:41.624Z,4.90
2023-02-25T07:26:11.625Z,5.00
2023-02-25T07:28:39.332Z,5.10
2023-02-25T07:31:21.865Z,5.10
2023-02-25T07:33:49.022Z,5.20
2023-02-25T07:36:16.609Z,5.20
2023-02-25T07:38:44.317Z,5.10
2023-02-25T07:41:20.501Z,5.20
2023-02-25T07:43:47.358Z,5.20
2023-02-25T07:46:14.329Z,5.30
2023-02-25T07:48:41.587Z,5.30
2023-02-25T07:51:16.017Z,5.40
2023-02-25T07:53:43.117Z,5.30
2023-02-25T07:56:10.780Z,5.20
2023-02-25T07:58:38.438Z,5.20
2023-02-25T08:01:11.357Z,5.20
2023-02-25T08:03:38.829Z,5.30
2023-02-25T08:06:08.131Z,5.40
2023-02-25T08:08:38.360Z,5.20
2023-02-25T08:11:11.136Z,5.30
2023-02-25T08:13:38.685Z,5.30
2023-02-25T08:16:12.839Z,5.30
2023-02-25T08:18:43.792Z,5.30
2023-02-25T08:21:12.833Z,5.50
2023-02-25T08:23:40.858Z,5.50
2023-02-25T08:26:09.762Z,5.50
2023-02-25T08:28:37.521Z,5.50
2023-02-25T08:31:07.695Z,5.60
2023-02-25T08:33:34.592Z,5.70
2023-02-25T08:36:13.165Z,5.70
2023-02-25T08:38:40.380Z,5.80
2023-02-25T08:41:08.896Z,5.90
2023-02-25T08:43:37.499Z,5.90
2023-02-25T08:46:06.560Z,6.00
2023-02-25T08:48:35.268Z,6.00
2023-02-25T08:51:10.400Z,6.00
2023-02-25T08:53:39.813Z,6.00
2023-02-25T08:56:13.229Z,6.00
2023-02-25T08:58:41.407Z,6.00
2023-02-25T09:01:14.849Z,6.20
2023-02-25T09:03:53.719Z,6.20
2023-02-25T09:06:30.348Z,6.20
2023-02-25T09:08:57.832Z,6.20
2023-02-25T09:11:26.427Z,6.30
2023-02-25T09:13:54.529Z,6.20
2023-02-25T09:16:21.774Z,6.10
2023-02-25T09:18:51.283Z,6.20
2023-02-25T09:21:19.808Z,6.10
2023-02-25T09:23:47.119Z,6.00
2023-02-25T09:26:14.686Z,5.90
2023-02-25T09:28:41.622Z,5.90
2023-02-25T09:31:08.740Z,6.00
2023-02-25T09:33:37.839Z,6.00
2023-02-25T09:36:17.744Z,5.90
2023-02-25T09:38:46.502Z,5.90
2023-02-25T09:41:36.345Z,6.10
2023-02-25T09:44:12.403Z,6.40
2023-02-25T09:46:52.095Z,6.60
2023-02-25T09:49:31.573Z,6.60
2023-02-25T09:52:29.024Z,5.90
2023-02-25T09:55:17.705Z,5.50
2023-02-25T09:57:55.567Z,5.30
2023-02-25T10:00:23.826Z,5.30
2023-02-25T10:03:12.080Z,5.50
2023-02-25T10:05:49.534Z,5.60
2023-02-25T10:08:56.003Z,5.70
2023-02-25T10:12:16.619Z,5.80
2023-02-25T10:15:18.728Z,6.00
2023-02-25T10:18:13.898Z,6.10
2023-02-25T10:21:26.722Z,6.40
2023-02-25T10:24:13.981Z,6.50
2023-02-25T10:26:49.868Z,6.60
2023-02-25T10:29:30.002Z,6.60
2023-02-25T10:32:06.354Z,6.70
2023-02-25T10:34:38.836Z,6.70
2023-02-25T10:37:17.151Z,6.70
2023-02-25T10:39:48.303Z,6.90
2023-02-25T10:42:17.186Z,7.00
2023-02-25T10:44:45.118Z,7.10
2023-02-25T10:47:21.435Z,7.00
2023-02-25T10:50:42.766Z,6.90
2023-02-25T10:53:17.743Z,7.00
2023-02-25T10:55:44.486Z,7.40
2023-02-25T10:58:34.290Z,7.30
2023-02-25T11:01:17.343Z,7.30
2023-02-25T11:04:02.671Z,6.90
2023-02-25T11:06:36.786Z,6.40
2023-02-25T11:09:21.645Z,6.60
2023-02-25T11:12:07.838Z,6.80
2023-02-25T11:14:37.722Z,6.60
2023-02-25T11:17:21.808Z,6.80
2023-02-25T11:20:02.229Z,6.80
2023-02-25T11:22:37.800Z,6.80
2023-02-25T11:25:16.978Z,6.90
2023-02-25T11:27:53.975Z,7.00
2023-02-25T11:30:32.345Z,7.00
2023-02-25T11:33:04.346Z,7.20
2023-02-25T11:35:38.465Z,7.50
2023-02-25T11:38:34.251Z,7.50
2023-02-25T11:41:01.337Z,7.60
2023-02-25T11:43:39.103Z,7.70
2023-02-25T11:46:23.116Z,7.70
2023-02-25T11:49:02.102Z,7.60
2023-02-25T11:51:37.294Z,8.00
2023-02-25T11:55:02.428Z,8.10
2023-02-25T11:57:58.565Z,8.00
2023-02-25T12:00:55.086Z,8.10
2023-02-25T12:03:27.692Z,8.20
2023-02-25T12:06:14.907Z,8.10
2023-02-25T12:08:59.790Z,8.10
2023-02-25T12:12:00.695Z,8.40
2023-02-25T12:14:46.669Z,8.30
2023-02-25T12:17:38.031Z,7.90
2023-02-25T12:21:00.465Z,7.90
2023-02-25T12:24:19.831Z,8.10
2023-02-25T12:27:34.027Z,8.20
2023-02-25T12:30:45.183Z,8.30
2023-02-25T12:33:25.296Z,8.50
2023-02-25T12:36:26.136Z,8.10
2023-02-25T12:39:25.641Z,7.80
2023-02-25T12:42:18.100Z,7.90
2023-02-25T12:45:03.433Z,7.70
2023-02-25T12:48:21.080Z,7.60
2023-02-25T12:51:16.197Z,7.60
2023-02-25T12:54:09.438Z,7.50
2023-02-25T12:56:56.625Z,7.90
2023-02-25T13:00:05.935Z,8.00
2023-02-25T13:03:30.513Z,8.10
2023-02-25T13:06:31.271Z,7.70
2023-02-25T13:09:21.213Z,7.40
2023-02-25T13:12:20.484Z,7.20
2023-02-25T13:15:14.205Z,7.40
2023-02-25T13:18:27.586Z,7.60
2023-02-25T13:21:43.710Z,7.60
2023-02-25T13:24:47.833Z,7.80
2023-02-25T13:27:40.864Z,7.70
2023-02-25T13:30:32.585Z,7.60
2023-02-25T13:33:39.888Z,7.70
2023-02-25T13:36:51.286Z,7.70
2023-02-25T13:39:57.365Z,7.70
2023-02-25T13:42:42.116Z,7.60
2023-02-25T13:45:39.702Z,7.50
2023-02-25T13:48:54.533Z,7.50
2023-02-25T13:51:42.860Z,7.50
2023-02-25T13:54:53.342Z,7.40
2023-02-25T13:57:51.065Z,7.50
2023-02-25T14:00:35.442Z,7.50
2023-02-25T14:03:39.800Z,7.30
2023-02-25T14:06:35.454Z,7.50
2023-02-25T14:09:46.872Z,7.60
2023-02-25T14:12:48.518Z,7.80
2023-02-25T14:16:05.759Z,7.50
2023-02-25T14:18:44.504Z,7.60
2023-02-25T14:21:48.853Z,7.60
2023-02-25T14:24:48.632Z,7.30
2023-02-25T14:28:07.110Z,7.30
2023-02-25T14:30:55.223Z,7.10
2023-02-25T14:33:59.815Z,7.20
2023-02-25T14:36:58.299Z,7.20
2023-02-25T14:39:48.362Z,7.40
2023-02-25T14:42:21.085Z,7.40
2023-02-25T14:45:23.781Z,7.40
2023-02-25T14:47:58.649Z,7.60
2023-02-25T14:50:31.105Z,7.70
2023-02-25T14:53:48.862Z,7.60
2023-02-25T14:57:01.888Z,7.60
2023-02-25T14:59:48.272Z,7.40
2023-02-25T15:03:02.137Z,7.50
2023-02-25T15:05:59.342Z,7.50
2023-02-25T15:09:18.828Z,7.50
2023-02-25T15:12:42.164Z,7.50
2023-02-25T15:16:06.587Z,7.20
2023-02-25T15:19:07.851Z,7.10
2023-02-25T15:21:44.865Z,6.80
2023-02-25T15:24:41.805Z,6.80
2023-02-25T15:27:36.631Z,6.90
2023-02-25T15:30:16.938Z,6.80
2023-02-25T15:33:01.991Z,6.80
2023-02-25T15:35:34.846Z,6.90
2023-02-25T15:38:13.570Z,6.90
2023-02-25T15:40:55.381Z,6.80
2023-02-25T15:43:26.305Z,7.00
2023-02-25T15:46:22.968Z,6.80
2023-02-25T15:49:20.106Z,6.80
2023-02-25T15:51:55.769Z,6.90
2023-02-25T15:54:28.585Z,6.80
2023-02-25T15:57:04.971Z,6.70
2023-02-25T15:59:55.414Z,6.60
2023-02-25T16:02:33.117Z,6.50
2023-02-25T16:05:35.565Z,6.40
2023-02-25T16:08:18.430Z,6.40
2023-02-25T16:10:49.428Z,6.30
2023-02-25T16:13:27.741Z,6.30
2023-02-25T16:15:57.579Z,6.30
2023-02-25T16:18:47.849Z,6.30
2023-02-25T16:21:31.273Z,6.30
2023-02-25T16:24:00.493Z,6.20
2023-02-25T16:26:57.844Z,6.20
2023-02-25T16:30:09.758Z,6.10
2023-02-25T16:32:58.582Z,6.10
2023-02-25T16:35:40.714Z,6.20
2023-02-25T16:38:33.149Z,6.10
2023-02-25T16:41:01.403Z,6.10
2023-02-25T16:43:36.142Z,6.10
2023-02-25T16:46:07.244Z,6.10
2023-02-25T16:48:42.861Z,6.00
2023-02-25T16:51:26.940Z,6.00
2023-02-25T16:54:06.265Z,6.00
2023-02-25T16:56:33.712Z,6.00
2023-02-25T16:59:10.667Z,5.90
2023-02-25T17:01:38.603Z,5.80
2023-02-25T17:04:24.084Z,5.70
2023-02-25T17:07:13.906Z,5.70
2023-02-25T17:10:02.985Z,5.70
2023-02-25T17:12:45.693Z,5.70
2023-02-25T17:15:28.484Z,5.50
2023-02-25T17:18:20.507Z,5.50
2023-02-25T17:20:48.085Z,5.40
2023-02-25T17:23:16.910Z,5.50
2023-02-25T17:25:48.894Z,5.50
2023-02-25T17:28:25.937Z,5.40
2023-02-25T17:31:05.111Z,5.30
2023-02-25T17:33:32.119Z,5.20
2023-02-25T17:36:15.418Z,5.20
2023-02-25T17:38:45.711Z,5.20
2023-02-25T17:41:21.113Z,5.20
2023-02-25T17:43:48.075Z,5.10
2023-02-25T17:46:39.413Z,5.00
2023-02-25T17:49:21.409Z,5.00
2023-02-25T17:51:55.357Z,4.90
2023-02-25T17:54:25.657Z,4.90
2023-02-25T17:57:14.944Z,4.80
2023-02-25T17:59:50.246Z,4.80
2023-02-25T18:02:23.124Z,4.70
2023-02-25T18:04:53.810Z,4.70
2023-02-25T18:07:32.570Z,4.70
2023-02-25T18:10:02.739Z,4.60
2023-02-25T18:12:35.990Z,4.50
2023-02-25T18:15:17.356Z,4.40
2023-02-25T18:17:51.529Z,4.40
2023-02-25T18:20:36.269Z,4.30
2023-02-25T18:23:08.273Z,4.30
2023-02-25T18:25:39.818Z,4.20
2023-02-25T18:28:16.859Z,4.20
2023-02-25T18:30:45.477Z,4.10
2023-02-25T18:33:12.526Z,4.10
2023-02-25T18:35:43.824Z,4.10
2023-02-25T18:38:26.370Z,4.10
2023-02-25T18:40:54.316Z,4.00
2023-02-25T18:43:28.774Z,4.10
2023-02-25T18:45:55.708Z,4.00
2023-02-25T18:48:23.181Z,3.90
2023-02-25T18:50:50.021Z,3.90
2023-02-25T18:53:25.606Z,3.80
2023-02-25T18:55:54.206Z,3.70
2023-02-25T18:58:22.159Z,3.60
2023-02-25T19:00:53.407Z,3.50
2023-02-25T19:03:39.236Z,3.40
2023-02-25T19:06:07.039Z,3.30
2023-02-25T19:08:34.033Z,3.30
2023-02-25T19:11:01.032Z,3.20
2023-02-25T19:13:38.880Z,3.10
2023-02-25T19:16:06.670Z,3.10
2023-02-25T19:18:34.145Z,3.10
2023-02-25T19:21:01.293Z,3.10
2023-02-25T19:23:29.078Z,3.00
2023-02-25T19:26:00.390Z,2.90
2023-02-25T19:28:27.690Z,2.90
2023-02-25T19:30:55.568Z,2.80
2023-02-25T19:33:22.615Z,2.80
2023-02-25T19:35:49.581Z,2.70
2023-02-25T19:38:20.084Z,2.70
2023-02-25T19:40:47.718Z,2.70
2023-02-25T19:43:16.281Z,2.60
2023-02-25T19:45:43.528Z,2.60
2023-02-25T19:48:10.655Z,2.60
2023-02-25T19:50:40.580Z,2.70
2023-02-25T19:53:07.628Z,2.70
2023-02-25T19:55:34.556Z,2.70
2023-02-25T19:58:02.084Z,2.70
2023-02-25T20:00:29.102Z,2.70
2023-02-25T20:02:56.183Z,2.70
2023-02-25T20:05:24.512Z,2.60
2023-02-25T20:07:51.817Z,2.60
2023-02-25T20:10:19.616Z,2.50
2023-02-25T20:12:47.620Z,2.50
2023-02-25T20:15:16.236Z,2.40
2023-02-25T20:17:45.423Z,2.40
2023-02-25T20:20:14.796Z,2.30
2023-02-25T20:22:42.590Z,2.30
2023-02-25T20:25:11.126Z,2.30
2023-02-25T20:27:39.757Z,2.30
2023-02-25T20:30:08.195Z,2.20
2023-02-25T20:32:35.168Z,2.10
2023-02-25T20:35:02.921Z,2.10
2023-02-25T20:37:37.101Z,2.00
2023-02-25T20:40:08.037Z,2.00
2023-02-25T20:42:35.187Z,2.00
2023-02-25T20:45:02.441Z,2.00
2023-02-25T20:47:37.228Z,1.90
2023-02-25T20:50:07.165Z,1.90
2023-02-25T20:52:34.136Z,1.90
2023-02-25T20:55:01.218Z,1.90
2023-02-25T20:57:28.151Z,1.90
2023-02-25T20:59:55.035Z,1.90
2023-02-25T21:02:22.521Z,1.90
2023-02-25T21:04:50.594Z,1.80
2023-02-25T21:07:17.649Z,1.80
2023-02-25T21:09:44.638Z,1.70
2023-02-25T21:12:11.586Z,1.70
2023-02-25T21:14:38.437Z,1.60
2023-02-25T21:17:09.203Z,1.60
2023-02-25T21:19:38.049Z,1.60
2023-02-25T21:22:05.618Z,1.50
2023-02-25T21:24:33.615Z,1.50
2023-02-25T21:27:04.126Z,1.50
2023-02-25T21:29:32.104Z,1.50
2023-02-25T21:31:58.952Z,1.60
2023-02-25T21:34:26.053Z,1.50
2023-02-25T21:36:52.931Z,1.50
2023-02-25T21:39:19.956Z,1.40
2023-02-25T21:41:46.810Z,1.40
2023-02-25T21:44:14.687Z,1.40
2023-02-25T21:46:41.482Z,1.40
2023-02-25T21:49:10.445Z,1.40
2023-02-25T21:51:37.497Z,1.30
2023-02-25T21:54:04.506Z,1.30
2023-02-25T21:56:31.963Z,1.30
2023-02-25T21:59:03.763Z,1.30
2023-02-25T22:01:37.578Z,1.30
2023-02-25T22:04:05.970Z,1.30
2023-02-25T22:06:33.669Z,1.30
2023-02-25T22:09:01.376Z,1.30
2023-02-25T22:11:33.465Z,1.30
2023-02-25T22:14:02.668Z,1.20
2023-02-25T22:16:29.840Z,1.20
2023-02-25T22:18:57.553Z,1.20
2023-02-25T22:21:28.675Z,1.20
2023-02-25T22:24:00.387Z,1.20
2023-02-25T22:26:31.905Z,1.10
2023-02-25T22:29:04.364Z,1.10
2023-02-25T22:31:32.824Z,1.10
2023-02-25T22:34:00.725Z,1.10
2023-02-25T22:36:28.294Z,1.10
2023-02-25T22:38:56.394Z,1.10
2023-02-25T22:41:29.479Z,1.00
2023-02-25T22:43:59.411Z,1.10
2023-02-25T22:46:30.019Z,1.00
2023-02-25T22:48:57.426Z,1.00
2023-02-25T22:51:31.927Z,1.00
2023-02-25T22:53:59.425Z,1.00
2023-02-25T22:56:27.868Z,1.00
2023-02-25T22:58:55.515Z,1.00
2023-02-25T23:01:24.990Z,1.00
2023-02-25T23:03:53.828Z,1.00
2023-02-25T23:06:31.423Z,1.00
2023-02-25T23:09:08.724Z,1.10
2023-02-25T23:11:35.557Z,1.00
2023-02-25T23:14:03.747Z,1.00
2023-02-25T23:16:40.900Z,0.90
2023-02-25T23:19:13.546Z,1.00
2023-02-25T23:21:40.540Z,1.00
2023-02-25T23:24:09.325Z,1.00
2023-02-25T23:26:41.771Z,1.00
2023-02-25T23:29:11.650Z,1.10
2023-02-25T23:31:44.919Z,1.10
2023-02-25T23:34:19.978Z,1.20
2023-02-25T23:36:47.357Z,1.20
2023-02-25T23:39:15.915Z,1.30
2023-02-25T23:41:43.983Z,1.40
2023-02-25T23:44:13.535Z,1.40
2023-02-25T23:46:43.066Z,1.40
2023-02-25T23:49:12.911Z,1.50
2023-02-25T23:51:44.498Z,1.40
2023-02-25T23:54:16.692Z,1.40
2023-02-25T23:56:43.640Z,1.50
2023-02-25T23:59:10.888Z,1.40
